Time;durP1;ratioP1;P1;durP2;ratioP2;P2;SDS_P1;SDS_P2;PMS_P1;PMS_P2;Temp;Humidity;BMP_temperature;BMP_pressure;BME280_temperature;BME280_humidity;BME280_pressure;Samples;Min_cycle;Max_cycle;Signal;HPM_P1;HPM_P2
2020/12/21 00:00:02;;;;;;;;;;;21.60;49.40;;;;;;5092339;28;1110;-66
2020/12/21 00:02:28;;;;;;;;;;;21.50;49.50;;;;;;5074333;28;1961;-66
2020/12/21 00:04:53;;;;;;;;;;;21.50;49.50;;;;;;5091358;28;1346;-67
2020/12/21 00:07:19;;;;;;;;;;;21.50;49.50;;;;;;5092067;28;1291;-66
2020/12/21 00:09:44;;;;;;;;;;;21.50;49.60;;;;;;5091804;28;1364;-66
2020/12/21 00:12:10;;;;;;;;;;;21.50;49.60;;;;;;5092571;28;1376;-65
2020/12/21 00:14:35;;;;;;;;;;;21.50;49.70;;;;;;5095091;28;1362;-66
2020/12/21 00:17:01;;;;;;;;;;;21.50;49.70;;;;;;5095374;28;1331;-67
2020/12/21 00:19:26;;;;;;;;;;;21.40;49.70;;;;;;5077568;28;1350;-65
2020/12/21 00:21:52;;;;;;;;;;;21.40;49.80;;;;;;5095126;28;1222;-63
2020/12/21 00:24:18;;;;;;;;;;;21.40;49.80;;;;;;5095150;28;1898;-63
2020/12/21 00:26:46;;;;;;;;;;;21.40;49.80;;;;;;5094981;28;1327;-63
2020/12/21 00:29:12;;;;;;;;;;;21.40;49.90;;;;;;5095812;28;1368;-63
2020/12/21 00:31:38;;;;;;;;;;;21.40;49.90;;;;;;5077273;28;1369;-62
2020/12/21 00:34:06;;;;;;;;;;;21.40;50.00;;;;;;5077168;28;1310;-63
2020/12/21 00:36:32;;;;;;;;;;;21.30;50.00;;;;;;5094806;28;1400;-63
2020/12/21 00:38:58;;;;;;;;;;;21.30;50.00;;;;;;5077672;28;1343;-62
2020/12/21 00:41:24;;;;;;;;;;;21.30;50.00;;;;;;5095637;28;1138;-63
2020/12/21 00:43:49;;;;;;;;;;;21.30;50.10;;;;;;5095137;28;1909;-63
2020/12/21 00:46:15;;;;;;;;;;;21.30;50.10;;;;;;5094487;28;1377;-63
2020/12/21 00:48:41;;;;;;;;;;;21.30;50.20;;;;;;5077336;28;1287;-63
2020/12/21 00:51:07;;;;;;;;;;;21.30;50.20;;;;;;5094616;28;1193;-64
2020/12/21 00:53:33;;;;;;;;;;;21.20;50.20;;;;;;5094736;28;1277;-64
2020/12/21 00:56:02;;;;;;;;;;;21.20;50.20;;;;;;5094433;28;1410;-63
2020/12/21 00:58:29;;;;;;;;;;;21.20;50.30;;;;;;5077343;28;1305;-62
2020/12/21 01:00:55;;;;;;;;;;;21.20;50.30;;;;;;5076780;28;1111;-66
2020/12/21 01:03:20;;;;;;;;;;;21.20;50.40;;;;;;5094901;28;1929;-62
2020/12/21 01:05:45;;;;;;;;;;;21.20;50.40;;;;;;5094405;28;1237;-65
2020/12/21 01:08:11;;;;;;;;;;;21.10;50.40;;;;;;5094397;28;1294;-63
2020/12/21 01:10:36;;;;;;;;;;;21.10;50.50;;;;;;5094868;28;1400;-63
2020/12/21 01:13:02;;;;;;;;;;;21.10;50.50;;;;;;5076361;28;1647;-62
2020/12/21 01:15:27;;;;;;;;;;;21.10;50.50;;;;;;5094437;28;1355;-63
2020/12/21 01:17:53;;;;;;;;;;;21.10;50.60;;;;;;5094358;28;1357;-65
2020/12/21 01:20:18;;;;;;;;;;;21.10;50.60;;;;;;5094552;28;1410;-62
2020/12/21 01:22:44;;;;;;;;;;;21.10;50.60;;;;;;5094400;28;1963;-62
2020/12/21 01:25:09;;;;;;;;;;;21.00;50.60;;;;;;5094054;28;1464;-64
2020/12/21 01:27:35;;;;;;;;;;;21.00;50.70;;;;;;5093546;28;1291;-62
2020/12/21 01:30:00;;;;;;;;;;;21.10;50.70;;;;;;5094817;28;1358;-63
2020/12/21 01:32:25;;;;;;;;;;;21.00;50.70;;;;;;5094471;28;1279;-63
2020/12/21 01:34:51;;;;;;;;;;;21.10;50.80;;;;;;5093679;28;1292;-63
2020/12/21 01:37:16;;;;;;;;;;;21.00;50.80;;;;;;5094145;28;1088;-63
2020/12/21 01:39:48;;;;;;;;;;;21.00;50.80;;;;;;5093651;28;1215;-64
2020/12/21 01:42:22;;;;;;;;;;;21.00;50.90;;;;;;5094268;28;1063;-65
2020/12/21 01:44:48;;;;;;;;;;;21.00;50.90;;;;;;5093797;28;1911;-64
2020/12/21 01:47:17;;;;;;;;;;;21.00;51.00;;;;;;5093749;28;1080;-63
2020/12/21 01:49:42;;;;;;;;;;;21.00;51.00;;;;;;5093289;28;1153;-63
2020/12/21 01:52:08;;;;;;;;;;;21.00;51.00;;;;;;5094090;28;1367;-63
2020/12/21 01:54:33;;;;;;;;;;;20.90;51.00;;;;;;5093689;28;1245;-65
2020/12/21 01:56:59;;;;;;;;;;;20.90;51.00;;;;;;5094022;28;1284;-62
2020/12/21 01:59:25;;;;;;;;;;;20.90;51.10;;;;;;5094161;28;1283;-63
2020/12/21 02:01:50;;;;;;;;;;;20.90;51.10;;;;;;5075357;28;1358;-63
2020/12/21 02:04:16;;;;;;;;;;;20.90;51.10;;;;;;5075282;28;1951;-65
2020/12/21 02:06:41;;;;;;;;;;;20.90;51.10;;;;;;5075044;28;1368;-63
2020/12/21 02:09:07;;;;;;;;;;;20.90;51.20;;;;;;5094032;28;1342;-63
2020/12/21 02:11:32;;;;;;;;;;;20.90;51.20;;;;;;5075620;28;1358;-63
2020/12/21 02:13:58;;;;;;;;;;;20.90;51.20;;;;;;5092737;28;1084;-62
2020/12/21 02:16:23;;;;;;;;;;;20.80;51.30;;;;;;5093382;28;1575;-63
2020/12/21 02:18:48;;;;;;;;;;;20.80;51.30;;;;;;5075138;28;1350;-64
2020/12/21 02:21:14;;;;;;;;;;;20.80;51.30;;;;;;5093580;28;1154;-65
2020/12/21 02:23:39;;;;;;;;;;;20.80;51.30;;;;;;5092974;28;1967;-63
2020/12/21 02:26:05;;;;;;;;;;;20.80;51.40;;;;;;5075224;28;1378;-66
2020/12/21 02:28:30;;;;;;;;;;;20.80;51.40;;;;;;5093067;28;1470;-63
2020/12/21 02:30:56;;;;;;;;;;;20.80;51.40;;;;;;5093487;28;1267;-63
2020/12/21 02:33:21;;;;;;;;;;;20.80;51.40;;;;;;5092687;28;1357;-62
2020/12/21 02:35:47;;;;;;;;;;;20.80;51.40;;;;;;5091889;28;1272;-63
2020/12/21 02:38:12;;;;;;;;;;;20.80;51.40;;;;;;5092901;28;1366;-65
2020/12/21 02:40:38;;;;;;;;;;;20.80;51.40;;;;;;5093380;28;1491;-63
2020/12/21 02:43:03;;;;;;;;;;;20.70;51.40;;;;;;5093113;28;1956;-63
2020/12/21 02:45:29;;;;;;;;;;;20.70;51.40;;;;;;5092468;28;1354;-64
2020/12/21 02:47:54;;;;;;;;;;;20.80;51.50;;;;;;5092399;28;1139;-64
2020/12/21 02:50:20;;;;;;;;;;;20.70;51.50;;;;;;5074591;28;1301;-63
2020/12/21 02:52:45;;;;;;;;;;;20.70;51.50;;;;;;5092714;28;1371;-63
2020/12/21 02:55:11;;;;;;;;;;;20.70;51.50;;;;;;5092533;28;1389;-63
2020/12/21 02:57:36;;;;;;;;;;;20.70;51.50;;;;;;5092378;28;1341;-63
2020/12/21 03:00:05;;;;;;;;;;;20.70;51.60;;;;;;5093157;28;1251;-63
2020/12/21 03:02:30;;;;;;;;;;;20.70;51.60;;;;;;5074540;28;1302;-63
2020/12/21 03:04:56;;;;;;;;;;;20.70;51.60;;;;;;5092389;28;1894;-63
2020/12/21 03:07:21;;;;;;;;;;;20.70;51.60;;;;;;5092095;28;1008;-63
2020/12/21 03:09:47;;;;;;;;;;;20.70;51.60;;;;;;5092892;28;1380;-64
2020/12/21 03:12:12;;;;;;;;;;;20.70;51.60;;;;;;5092250;28;1371;-63
2020/12/21 03:14:38;;;;;;;;;;;20.70;52.30;;;;;;5092285;28;1266;-63
2020/12/21 03:17:03;;;;;;;;;;;20.60;51.60;;;;;;5092424;28;1333;-63
2020/12/21 03:19:29;;;;;;;;;;;20.70;51.70;;;;;;5092566;28;1110;-64
2020/12/21 03:21:54;;;;;;;;;;;20.60;51.70;;;;;;5073936;28;1394;-63
2020/12/21 03:24:20;;;;;;;;;;;20.70;51.70;;;;;;5091058;28;1946;-65
2020/12/21 03:26:45;;;;;;;;;;;20.70;51.80;;;;;;5092109;28;1301;-63
2020/12/21 03:29:10;;;;;;;;;;;20.70;51.80;;;;;;5092535;28;1382;-62
2020/12/21 03:31:36;;;;;;;;;;;20.70;51.80;;;;;;5092748;28;1347;-63
2020/12/21 03:34:02;;;;;;;;;;;20.70;51.80;;;;;;5092239;28;1359;-64
2020/12/21 03:36:27;;;;;;;;;;;20.70;51.90;;;;;;5091771;28;1416;-63
2020/12/21 03:38:52;;;;;;;;;;;20.60;51.80;;;;;;5092226;28;1158;-62
2020/12/21 03:41:18;;;;;;;;;;;20.60;51.80;;;;;;5092265;28;1357;-63
2020/12/21 03:43:43;;;;;;;;;;;20.60;51.80;;;;;;5091653;28;1978;-65
2020/12/21 03:46:09;;;;;;;;;;;20.60;51.80;;;;;;5092151;28;1310;-63
2020/12/21 03:48:34;;;;;;;;;;;20.60;51.90;;;;;;5094670;28;1278;-62
2020/12/21 03:51:00;;;;;;;;;;;20.60;51.90;;;;;;5096348;28;1237;-64
2020/12/21 03:53:25;;;;;;;;;;;20.60;51.90;;;;;;5096134;28;1274;-63
2020/12/21 03:55:51;;;;;;;;;;;20.60;51.90;;;;;;5095580;28;1318;-63
2020/12/21 03:58:16;;;;;;;;;;;20.60;51.90;;;;;;5096335;28;1357;-63
2020/12/21 04:00:41;;;;;;;;;;;20.60;51.90;;;;;;5077903;28;1313;-63
2020/12/21 04:03:07;;;;;;;;;;;20.60;51.90;;;;;;5095508;28;1906;-63
2020/12/21 04:05:32;;;;;;;;;;;20.60;52.00;;;;;;5095799;28;1348;-64
2020/12/21 04:07:58;;;;;;;;;;;20.60;52.50;;;;;;5095740;28;1264;-65
2020/12/21 04:10:23;;;;;;;;;;;20.60;52.00;;;;;;5077888;28;1314;-62
2020/12/21 04:12:49;;;;;;;;;;;20.60;51.90;;;;;;5096560;28;1095;-63
2020/12/21 04:15:14;;;;;;;;;;;20.60;51.80;;;;;;5095338;28;1408;-64
2020/12/21 04:17:40;;;;;;;;;;;20.60;51.70;;;;;;5095822;28;1146;-63
2020/12/21 04:20:05;;;;;;;;;;;20.70;51.70;;;;;;5095872;28;1332;-63
2020/12/21 04:22:31;;;;;;;;;;;20.80;51.60;;;;;;5096083;28;1337;-63
2020/12/21 04:24:56;;;;;;;;;;;20.90;51.40;;;;;;5095461;28;1893;-65
2020/12/21 04:27:22;;;;;;;;;;;21.00;51.30;;;;;;5095369;28;1358;-62
2020/12/21 04:29:47;;;;;;;;;;;21.00;51.10;;;;;;5095411;28;1284;-62
2020/12/21 04:32:13;;;;;;;;;;;21.10;50.90;;;;;;5095370;28;1271;-63
2020/12/21 04:34:38;;;;;;;;;;;21.20;50.70;;;;;;5095244;28;1291;-63
2020/12/21 04:37:04;;;;;;;;;;;21.30;50.50;;;;;;5109806;22;3831;-68
2020/12/21 04:39:30;;;;;;;;;;;21.40;50.40;;;;;;5093524;28;992;-68
2020/12/21 04:41:56;;;;;;;;;;;21.50;50.20;;;;;;5077034;28;1454;-68
2020/12/21 04:44:21;;;;;;;;;;;21.50;50.00;;;;;;5076809;28;1906;-68
2020/12/21 04:46:47;;;;;;;;;;;21.60;49.90;;;;;;5077399;28;1288;-68
2020/12/21 04:49:16;;;;;;;;;;;21.70;49.80;;;;;;5074551;28;1209;-68
2020/12/21 04:51:42;;;;;;;;;;;21.70;49.70;;;;;;5075554;28;1131;-68
2020/12/21 04:54:08;;;;;;;;;;;21.70;49.50;;;;;;5073520;28;1072;-68
2020/12/21 04:56:34;;;;;;;;;;;21.80;49.50;;;;;;5066119;28;1333;-68
2020/12/21 04:58:59;;;;;;;;;;;21.80;49.40;;;;;;5073166;28;1138;-67
2020/12/21 05:01:25;;;;;;;;;;;21.90;49.40;;;;;;5074777;28;1116;-67
2020/12/21 05:03:50;;;;;;;;;;;21.90;49.20;;;;;;5074242;28;1949;-68
2020/12/21 05:06:16;;;;;;;;;;;21.90;49.20;;;;;;5074015;28;1231;-68
2020/12/21 05:08:41;;;;;;;;;;;22.00;49.10;;;;;;5074784;28;1103;-68
2020/12/21 05:11:07;;;;;;;;;;;22.00;49.10;;;;;;5074964;28;1099;-69
2020/12/21 05:13:33;;;;;;;;;;;22.10;49.10;;;;;;5055781;28;1572;-69
2020/12/21 05:15:58;;;;;;;;;;;22.10;49.00;;;;;;5074031;28;1271;-68
2020/12/21 05:18:27;;;;;;;;;;;22.10;49.00;;;;;;5073476;28;1151;-68
2020/12/21 05:20:57;;;;;;;;;;;22.10;48.90;;;;;;5078331;28;1198;-69
2020/12/21 05:23:22;;;;;;;;;;;22.10;48.90;;;;;;5076081;28;1890;-68
2020/12/21 05:26:01;;;;;;;;;;;22.10;48.90;;;;;;5094180;28;1252;-66
2020/12/21 05:28:27;;;;;;;;;;;22.20;48.90;;;;;;5076319;28;1107;-68
2020/12/21 05:30:55;;;;;;;;;;;22.20;48.80;;;;;;5076528;28;1102;-69
2020/12/21 05:33:20;;;;;;;;;;;22.20;48.80;;;;;;5094716;28;1118;-68
2020/12/21 05:35:46;;;;;;;;;;;22.20;48.80;;;;;;5093912;28;1359;-69
2020/12/21 05:38:38;;;;;;;;;;;22.20;48.80;;;;;;5076046;28;1386;-67
2020/12/21 05:41:16;;;;;;;;;;;22.20;48.70;;;;;;5089994;28;1186;-70
2020/12/21 05:43:50;;;;;;;;;;;22.30;48.70;;;;;;5075146;28;1949;-67
2020/12/21 05:46:15;;;;;;;;;;;22.30;48.80;;;;;;5075894;28;1398;-68
2020/12/21 05:48:44;;;;;;;;;;;22.30;48.70;;;;;;5094594;28;1078;-69
2020/12/21 05:51:10;;;;;;;;;;;22.30;48.70;;;;;;5057033;28;1271;-67
2020/12/21 05:53:37;;;;;;;;;;;22.30;48.70;;;;;;5071707;28;1327;-68
2020/12/21 05:56:02;;;;;;;;;;;22.30;48.80;;;;;;5050417;28;2026;-66
2020/12/21 05:58:29;;;;;;;;;;;22.30;48.80;;;;;;5068279;28;887;-67
2020/12/21 06:00:55;;;;;;;;;;;22.30;48.80;;;;;;5072403;28;1299;-67
2020/12/21 06:03:21;;;;;;;;;;;22.30;48.80;;;;;;5071367;28;1941;-68
2020/12/21 06:05:46;;;;;;;;;;;22.30;48.90;;;;;;5070510;28;1393;-66
2020/12/21 06:08:12;;;;;;;;;;;22.30;48.90;;;;;;5071136;28;1343;-68
2020/12/21 06:10:37;;;;;;;;;;;22.30;48.90;;;;;;5053505;28;1369;-68
2020/12/21 06:13:03;;;;;;;;;;;22.30;48.90;;;;;;5071046;28;1194;-68
2020/12/21 06:15:28;;;;;;;;;;;22.30;48.90;;;;;;5070749;28;1602;-66
2020/12/21 06:17:54;;;;;;;;;;;22.30;49.00;;;;;;5070750;28;1335;-67
2020/12/21 06:20:19;;;;;;;;;;;22.20;49.60;;;;;;5071143;28;1329;-67
2020/12/21 06:22:45;;;;;;;;;;;22.20;49.10;;;;;;5076781;28;1965;-68
2020/12/21 06:25:10;;;;;;;;;;;22.20;49.10;;;;;;5067841;28;1367;-67
2020/12/21 06:27:39;;;;;;;;;;;22.20;49.20;;;;;;5073837;28;1358;-68
2020/12/21 06:30:05;;;;;;;;;;;22.20;49.20;;;;;;5086700;28;1320;-66
2020/12/21 06:32:31;;;;;;;;;;;22.20;49.30;;;;;;5062177;28;1071;-65
2020/12/21 06:34:57;;;;;;;;;;;22.10;49.30;;;;;;5073122;28;1143;-66
2020/12/21 06:37:22;;;;;;;;;;;22.10;49.30;;;;;;5074003;28;1223;-66
2020/12/21 06:39:58;;;;;;;;;;;22.10;49.40;;;;;;5092276;28;1365;-66
2020/12/21 06:42:26;;;;;;;;;;;22.00;49.30;;;;;;5079416;28;1243;-67
2020/12/21 06:44:54;;;;;;;;;;;22.10;49.40;;;;;;5072988;28;1995;-64
2020/12/21 06:47:19;;;;;;;;;;;22.10;49.50;;;;;;5072901;28;1386;-67
2020/12/21 06:49:45;;;;;;;;;;;22.10;49.50;;;;;;5064969;28;1484;-64
2020/12/21 06:52:10;;;;;;;;;;;22.00;49.50;;;;;;5070968;28;1303;-69
2020/12/21 06:54:36;;;;;;;;;;;22.00;49.60;;;;;;5069227;28;1434;-70
2020/12/21 06:57:01;;;;;;;;;;;22.00;49.60;;;;;;5064728;28;1346;-69
2020/12/21 06:59:27;;;;;;;;;;;21.90;49.10;;;;;;5070943;28;1279;-70
2020/12/21 07:01:53;;;;;;;;;;;21.90;45.60;;;;;;5072319;28;1357;-69
2020/12/21 07:04:19;;;;;;;;;;;21.80;43.90;;;;;;5071423;28;1878;-69
2020/12/21 07:06:45;;;;;;;;;;;21.70;43.10;;;;;;5071157;28;1327;-68
2020/12/21 07:09:11;;;;;;;;;;;21.60;43.50;;;;;;5057639;28;1350;-69
2020/12/21 07:11:37;;;;;;;;;;;21.60;44.00;;;;;;5072346;28;1310;-70
2020/12/21 07:14:02;;;;;;;;;;;21.50;44.50;;;;;;5071746;28;1404;-71
2020/12/21 07:16:28;;;;;;;;;;;21.50;45.10;;;;;;5071862;28;1390;-67
2020/12/21 07:18:53;;;;;;;;;;;21.50;45.40;;;;;;5071979;28;1421;-68
2020/12/21 07:21:19;;;;;;;;;;;21.60;45.80;;;;;;5064844;28;1198;-69
2020/12/21 07:23:44;;;;;;;;;;;21.50;45.90;;;;;;5071823;28;1905;-70
2020/12/21 07:26:10;;;;;;;;;;;21.50;46.20;;;;;;5071648;28;1401;-67
2020/12/21 07:28:36;;;;;;;;;;;21.60;46.50;;;;;;5071998;28;1299;-69
2020/12/21 07:31:08;;;;;;;;;;;21.60;46.70;;;;;;5071176;28;1080;-68
2020/12/21 07:33:34;;;;;;;;;;;21.60;46.90;;;;;;5058223;28;1170;-69
2020/12/21 07:36:00;;;;;;;;;;;21.60;47.00;;;;;;5069892;28;1305;-69
2020/12/21 07:38:25;;;;;;;;;;;21.50;47.20;;;;;;5072387;28;1284;-68
2020/12/21 07:40:51;;;;;;;;;;;21.50;47.30;;;;;;5054345;28;1295;-68
2020/12/21 07:43:24;;;;;;;;;;;21.50;47.50;;;;;;5072201;28;1926;-68
2020/12/21 07:45:50;;;;;;;;;;;21.50;47.60;;;;;;5069574;28;1335;-68
2020/12/21 07:48:16;;;;;;;;;;;21.50;47.70;;;;;;5072092;28;1310;-68
2020/12/21 07:50:42;;;;;;;;;;;21.50;47.90;;;;;;5071255;28;1173;-68
2020/12/21 07:53:08;;;;;;;;;;;21.50;47.90;;;;;;5072042;28;1293;-68
2020/12/21 07:55:33;;;;;;;;;;;21.50;48.10;;;;;;5063342;28;1541;-68
2020/12/21 07:57:58;;;;;;;;;;;21.50;48.20;;;;;;5071358;28;1356;-67
2020/12/21 08:00:24;;;;;;;;;;;21.50;48.20;;;;;;5071859;28;1370;-68
2020/12/21 08:02:50;;;;;;;;;;;21.40;48.20;;;;;;5072045;28;1909;-68
2020/12/21 08:05:19;;;;;;;;;;;21.40;48.30;;;;;;5071263;28;1344;-68
2020/12/21 08:07:44;;;;;;;;;;;21.40;48.40;;;;;;5071399;28;1298;-69
2020/12/21 08:10:17;;;;;;;;;;;21.40;48.60;;;;;;5072005;28;1279;-68
2020/12/21 08:12:42;;;;;;;;;;;21.40;48.60;;;;;;5071972;28;1327;-68
2020/12/21 08:15:09;;;;;;;;;;;21.40;49.20;;;;;;5070582;28;1249;-68
2020/12/21 08:17:34;;;;;;;;;;;21.50;48.70;;;;;;5071491;28;1336;-67
2020/12/21 08:20:04;;;;;;;;;;;21.50;48.60;;;;;;5069648;28;1307;-67
2020/12/21 08:22:29;;;;;;;;;;;21.60;48.50;;;;;;5091949;28;1362;-67
2020/12/21 08:25:24;;;;;;;;;;;21.70;48.50;;;;;;5073402;28;1963;-68
2020/12/21 08:27:50;;;;;;;;;;;21.70;48.30;;;;;;5073706;28;1385;-67
2020/12/21 08:30:19;;;;;;;;;;;21.80;48.20;;;;;;5044479;28;1369;-67
2020/12/21 08:32:45;;;;;;;;;;;21.90;48.10;;;;;;5076348;28;1292;-68
2020/12/21 08:35:10;;;;;;;;;;;21.90;48.00;;;;;;5068389;28;1362;-69
2020/12/21 08:37:36;;;;;;;;;;;22.00;48.00;;;;;;5067038;28;1442;-68
2020/12/21 08:40:27;;;;;;;;;;;22.10;48.20;;;;;;5067240;28;1444;-67
2020/12/21 08:42:53;;;;;;;;;;;22.10;48.30;;;;;;5063793;28;1906;-68
2020/12/21 08:45:19;;;;;;;;;;;22.20;48.40;;;;;;5065418;28;1292;-66
2020/12/21 08:47:44;;;;;;;;;;;22.20;48.50;;;;;;5068612;28;1365;-69
2020/12/21 08:50:10;;;;;;;;;;;22.20;48.50;;;;;;5072030;28;1395;-68
2020/12/21 08:52:35;;;;;;;;;;;22.30;48.60;;;;;;5092372;28;1269;-68
2020/12/21 08:55:01;;;;;;;;;;;22.30;48.70;;;;;;5090425;28;1357;-68
2020/12/21 08:57:26;;;;;;;;;;;22.30;48.70;;;;;;5075417;28;1708;-67
2020/12/21 08:59:52;;;;;;;;;;;22.40;48.80;;;;;;5075907;28;1175;-67
2020/12/21 09:02:17;;;;;;;;;;;22.40;48.80;;;;;;5093830;28;1387;-66
2020/12/21 09:04:43;;;;;;;;;;;22.40;48.80;;;;;;5095858;28;1902;-67
2020/12/21 09:07:08;;;;;;;;;;;22.40;48.90;;;;;;5096188;28;1286;-67
2020/12/21 09:09:34;;;;;;;;;;;22.40;48.90;;;;;;5078698;28;1410;-67
2020/12/21 09:11:59;;;;;;;;;;;22.40;49.00;;;;;;5096695;28;1364;-66
2020/12/21 09:14:25;;;;;;;;;;;22.40;49.10;;;;;;5077648;28;1335;-67
2020/12/21 09:16:50;;;;;;;;;;;22.40;49.10;;;;;;5096430;28;1375;-67
2020/12/21 09:19:16;;;;;;;;;;;22.40;49.20;;;;;;5094589;28;1632;-67
2020/12/21 09:21:41;;;;;;;;;;;22.40;49.20;;;;;;5076026;28;1349;-66
2020/12/21 09:24:07;;;;;;;;;;;22.40;49.30;;;;;;5075678;28;1957;-66
2020/12/21 09:26:32;;;;;;;;;;;22.40;49.40;;;;;;5058872;28;1359;-66
2020/12/21 09:28:58;;;;;;;;;;;22.40;49.50;;;;;;5076902;28;1281;-68
2020/12/21 09:31:23;;;;;;;;;;;22.40;49.70;;;;;;5075849;28;1453;-66
2020/12/21 09:33:49;;;;;;;;;;;22.30;49.90;;;;;;5075711;28;1609;-66
2020/12/21 09:36:15;;;;;;;;;;;22.30;49.80;;;;;;5074116;28;1694;-67
2020/12/21 09:38:40;;;;;;;;;;;22.30;49.80;;;;;;5075659;28;1325;-67
2020/12/21 09:41:06;;;;;;;;;;;22.30;49.90;;;;;;5077376;28;1651;-68
2020/12/21 09:43:32;;;;;;;;;;;22.30;49.90;;;;;;5076788;28;1977;-66
2020/12/21 09:45:57;;;;;;;;;;;22.30;50.00;;;;;;5077473;28;1632;-66
2020/12/21 09:48:23;;;;;;;;;;;22.30;50.10;;;;;;5078075;28;1614;-66
2020/12/21 09:50:48;;;;;;;;;;;22.30;50.10;;;;;;5076359;28;1480;-68
2020/12/21 09:53:14;;;;;;;;;;;22.20;50.20;;;;;;5076031;28;1637;-66
2020/12/21 09:55:39;;;;;;;;;;;22.20;50.20;;;;;;5071080;28;1710;-65
2020/12/21 09:58:08;;;;;;;;;;;22.20;50.50;;;;;;5095529;28;1702;-65
2020/12/21 10:00:33;;;;;;;;;;;22.20;50.60;;;;;;5096548;28;1717;-65
2020/12/21 10:02:59;;;;;;;;;;;22.20;50.60;;;;;;5095637;28;1910;-66
2020/12/21 10:05:24;;;;;;;;;;;22.20;50.60;;;;;;5095143;28;1591;-66
2020/12/21 10:07:49;;;;;;;;;;;22.20;50.70;;;;;;5095972;28;1619;-66
2020/12/21 10:10:15;;;;;;;;;;;22.10;50.80;;;;;;5095443;28;1667;-66
2020/12/21 10:12:40;;;;;;;;;;;22.20;50.80;;;;;;5095113;28;1398;-66
2020/12/21 10:15:06;;;;;;;;;;;22.10;50.80;;;;;;5094236;28;1622;-66
2020/12/21 10:17:32;;;;;;;;;;;22.10;51.60;;;;;;5094324;28;1720;-66
2020/12/21 10:19:57;;;;;;;;;;;22.10;51.50;;;;;;5068467;28;1601;-66
2020/12/21 10:22:22;;;;;;;;;;;22.00;51.30;;;;;;5073762;28;1611;-65
2020/12/21 10:24:48;;;;;;;;;;;22.10;51.40;;;;;;5073430;28;1902;-66
2020/12/21 10:27:13;;;;;;;;;;;22.10;51.30;;;;;;5073887;28;1388;-66
2020/12/21 10:29:39;;;;;;;;;;;22.10;51.10;;;;;;5074143;28;1603;-66
2020/12/21 10:32:04;;;;;;;;;;;22.10;51.10;;;;;;5073658;28;1613;-65
2020/12/21 10:34:30;;;;;;;;;;;22.00;51.00;;;;;;5055589;28;1596;-65
2020/12/21 10:36:55;;;;;;;;;;;22.10;51.10;;;;;;5073227;28;1669;-66
2020/12/21 10:39:21;;;;;;;;;;;22.20;51.10;;;;;;5072950;28;1636;-67
2020/12/21 10:41:47;;;;;;;;;;;22.20;51.00;;;;;;5072988;28;1411;-65
2020/12/21 10:44:13;;;;;;;;;;;22.30;51.00;;;;;;5071938;28;1905;-66
2020/12/21 10:46:38;;;;;;;;;;;22.30;50.80;;;;;;5072322;28;1548;-66
2020/12/21 10:49:04;;;;;;;;;;;22.40;50.80;;;;;;5072428;28;1324;-66
2020/12/21 10:51:30;;;;;;;;;;;22.40;50.70;;;;;;5072333;28;1354;-66
2020/12/21 10:53:55;;;;;;;;;;;22.50;50.70;;;;;;5067645;28;2187;-67
2020/12/21 10:56:21;;;;;;;;;;;22.50;50.60;;;;;;5079892;28;1287;-68
2020/12/21 10:58:46;;;;;;;;;;;22.50;50.70;;;;;;5092860;28;1308;-69
2020/12/21 11:01:12;;;;;;;;;;;22.60;50.70;;;;;;5092395;28;1289;-68
2020/12/21 11:03:37;;;;;;;;;;;22.60;50.60;;;;;;5065442;28;1963;-67
2020/12/21 11:06:06;;;;;;;;;;;22.60;50.60;;;;;;5063727;28;1581;-67
2020/12/21 11:08:32;;;;;;;;;;;22.60;50.70;;;;;;5072427;28;1486;-68
2020/12/21 11:10:57;;;;;;;;;;;22.60;50.90;;;;;;5071127;28;1700;-67
2020/12/21 11:13:22;;;;;;;;;;;22.70;50.90;;;;;;5072162;28;1530;-67
2020/12/21 11:15:48;;;;;;;;;;;22.70;50.90;;;;;;5071352;28;1953;-69
2020/12/21 11:18:14;;;;;;;;;;;22.70;50.90;;;;;;5071444;28;1625;-68
2020/12/21 11:20:39;;;;;;;;;;;22.70;50.80;;;;;;5075654;28;1416;-68
2020/12/21 11:23:04;;;;;;;;;;;22.70;50.90;;;;;;5086860;28;1902;-68
2020/12/21 11:25:30;;;;;;;;;;;22.70;50.90;;;;;;5071753;28;1378;-68
2020/12/21 11:27:55;;;;;;;;;;;22.60;50.90;;;;;;5071623;28;1643;-68
2020/12/21 11:30:21;;;;;;;;;;;22.60;51.20;;;;;;5071079;28;1619;-67
2020/12/21 11:32:47;;;;;;;;;;;22.60;51.60;;;;;;5065585;28;2175;-66
2020/12/21 11:35:12;;;;;;;;;;;22.60;51.30;;;;;;5070428;28;1268;-68
2020/12/21 11:37:38;;;;;;;;;;;22.60;51.30;;;;;;5071817;28;1691;-68
2020/12/21 11:40:03;;;;;;;;;;;22.60;51.40;;;;;;5072589;28;1624;-67
2020/12/21 11:42:29;;;;;;;;;;;22.50;51.40;;;;;;5072389;28;1567;-67
2020/12/21 11:44:54;;;;;;;;;;;22.50;51.40;;;;;;5072321;28;1906;-67
2020/12/21 11:47:20;;;;;;;;;;;22.50;51.50;;;;;;5071512;28;1666;-68
2020/12/21 11:49:45;;;;;;;;;;;22.50;51.50;;;;;;5072406;28;1489;-68
2020/12/21 11:52:11;;;;;;;;;;;22.50;51.90;;;;;;5071712;28;1594;-69
2020/12/21 11:54:36;;;;;;;;;;;22.50;51.80;;;;;;5078085;28;1208;-69
2020/12/21 11:57:02;;;;;;;;;;;22.40;51.70;;;;;;5053917;28;1610;-68
2020/12/21 11:59:28;;;;;;;;;;;22.40;51.80;;;;;;5072280;28;1597;-67
2020/12/21 12:02:02;;;;;;;;;;;22.40;51.80;;;;;;5071597;28;1712;-67
2020/12/21 12:04:28;;;;;;;;;;;22.40;52.50;;;;;;5070079;28;1969;-67
2020/12/21 12:06:54;;;;;;;;;;;22.40;52.50;;;;;;5071845;28;1662;-66
2020/12/21 12:09:25;;;;;;;;;;;22.40;52.00;;;;;;5073034;28;1606;-67
2020/12/21 12:11:51;;;;;;;;;;;22.30;51.80;;;;;;5074550;28;1669;-68
2020/12/21 12:14:17;;;;;;;;;;;22.30;52.10;;;;;;5075083;28;1634;-67
2020/12/21 12:16:42;;;;;;;;;;;22.30;52.40;;;;;;5075373;28;1739;-69
2020/12/21 12:19:07;;;;;;;;;;;22.30;52.40;;;;;;5073235;28;1631;-67
2020/12/21 12:21:33;;;;;;;;;;;22.30;52.30;;;;;;5071596;28;1215;-68
2020/12/21 12:23:58;;;;;;;;;;;22.30;52.40;;;;;;5074941;28;1948;-66
2020/12/21 12:26:26;;;;;;;;;;;22.20;52.40;;;;;;5075335;28;1411;-67
2020/12/21 12:28:53;;;;;;;;;;;22.30;52.50;;;;;;5075925;28;1673;-67
2020/12/21 12:31:19;;;;;;;;;;;22.20;52.40;;;;;;5074266;28;1694;-69
2020/12/21 12:33:45;;;;;;;;;;;22.20;52.60;;;;;;5072584;28;1963;-67
2020/12/21 12:36:15;;;;;;;;;;;22.20;52.70;;;;;;5072691;28;1980;-68
2020/12/21 12:38:40;;;;;;;;;;;22.20;52.80;;;;;;5056873;28;1161;-68
2020/12/21 12:41:06;;;;;;;;;;;22.20;53.10;;;;;;5075367;28;1354;-68
2020/12/21 12:43:31;;;;;;;;;;;22.20;53.10;;;;;;5083815;28;1914;-68
2020/12/21 12:45:56;;;;;;;;;;;22.10;53.20;;;;;;5091961;28;1355;-68
2020/12/21 12:48:22;;;;;;;;;;;22.10;53.20;;;;;;5074601;28;1688;-67
2020/12/21 12:50:47;;;;;;;;;;;22.10;53.40;;;;;;5075476;28;1736;-68
2020/12/21 12:53:13;;;;;;;;;;;22.10;53.40;;;;;;5075122;28;1369;-68
2020/12/21 12:55:38;;;;;;;;;;;22.10;53.50;;;;;;5069957;28;1395;-67
2020/12/21 12:58:04;;;;;;;;;;;22.10;53.50;;;;;;5094630;28;1349;-68
2020/12/21 13:00:32;;;;;;;;;;;22.10;53.50;;;;;;5090091;28;1566;-69
2020/12/21 13:02:58;;;;;;;;;;;22.10;53.50;;;;;;5084563;28;1901;-68
2020/12/21 13:05:24;;;;;;;;;;;22.00;50.50;;;;;;5094697;28;1649;-69
2020/12/21 13:07:53;;;;;;;;;;;21.90;45.40;;;;;;5094546;28;1371;-69
2020/12/21 13:10:18;;;;;;;;;;;21.90;44.00;;;;;;5094512;28;1178;-68
2020/12/21 13:12:43;;;;;;;;;;;21.70;43.00;;;;;;5095333;28;1362;-70
2020/12/21 13:15:09;;;;;;;;;;;21.70;43.10;;;;;;5087891;28;1340;-68
2020/12/21 13:17:34;;;;;;;;;;;21.60;42.20;;;;;;5070622;28;1552;-69
2020/12/21 13:20:00;;;;;;;;;;;21.50;41.60;;;;;;5075742;28;1542;-69
2020/12/21 13:22:26;;;;;;;;;;;21.40;41.90;;;;;;5074277;28;1732;-68
2020/12/21 13:24:51;;;;;;;;;;;21.40;41.80;;;;;;5056367;28;1886;-68
2020/12/21 13:27:16;;;;;;;;;;;21.30;41.30;;;;;;5074655;28;1776;-69
2020/12/21 13:29:42;;;;;;;;;;;21.20;41.20;;;;;;5074073;28;1423;-68
2020/12/21 13:32:08;;;;;;;;;;;21.20;41.10;;;;;;5068129;28;2013;-68
2020/12/21 13:34:34;;;;;;;;;;;21.10;41.00;;;;;;5072653;28;1535;-69
2020/12/21 13:36:59;;;;;;;;;;;21.10;40.90;;;;;;5065761;28;1600;-68
2020/12/21 13:39:25;;;;;;;;;;;21.00;41.30;;;;;;5066931;28;1409;-69
2020/12/21 13:41:50;;;;;;;;;;;21.00;40.50;;;;;;5093553;28;1556;-68
2020/12/21 13:44:16;;;;;;;;;;;21.00;40.50;;;;;;5092433;28;1972;-68
2020/12/21 13:46:41;;;;;;;;;;;21.00;40.20;;;;;;5092729;28;1671;-68
2020/12/21 13:49:07;;;;;;;;;;;20.90;43.20;;;;;;5086829;28;1409;-68
2020/12/21 13:51:32;;;;;;;;;;;20.90;41.60;;;;;;5073004;28;1640;-69
2020/12/21 13:53:58;;;;;;;;;;;20.90;40.90;;;;;;5072722;28;1358;-68
2020/12/21 13:56:23;;;;;;;;;;;20.90;40.50;;;;;;5073224;28;1439;-68
2020/12/21 13:58:49;;;;;;;;;;;20.90;40.10;;;;;;5093261;28;1640;-69
2020/12/21 14:01:15;;;;;;;;;;;20.80;41.80;;;;;;5092667;28;1640;-67
2020/12/21 14:03:41;;;;;;;;;;;20.80;42.00;;;;;;5092981;28;2248;-68
2020/12/21 14:06:06;;;;;;;;;;;20.70;41.30;;;;;;5092536;28;1567;-68
2020/12/21 14:08:31;;;;;;;;;;;20.70;41.70;;;;;;5075085;28;1647;-68
2020/12/21 14:10:57;;;;;;;;;;;20.70;40.20;;;;;;5092755;28;1642;-69
2020/12/21 14:13:22;;;;;;;;;;;20.70;40.20;;;;;;5090590;28;1542;-70
2020/12/21 14:15:48;;;;;;;;;;;20.70;40.30;;;;;;5081036;28;1642;-67
2020/12/21 14:18:13;;;;;;;;;;;20.60;40.30;;;;;;5063375;28;1556;-67
2020/12/21 14:20:39;;;;;;;;;;;20.60;41.10;;;;;;5080568;28;1371;-68
2020/12/21 14:23:04;;;;;;;;;;;20.60;41.40;;;;;;5091226;28;1955;-67